Time;durP1;ratioP1;P1;durP2;ratioP2;P2;SDS_P1;SDS_P2;PMS_P1;PMS_P2;Temp;Humidity;BMP_temperature;BMP_pressure;BME280_temperature;BME280_humidity;BME280_pressure;Samples;Min_cycle;Max_cycle;Signal;HPM_P1;HPM_P2
2022/03/02 00:00:21;;;;;;;31.20;11.47;;;-2.40;92.60;;;;;;5034369;28;20432;-68
2022/03/02 00:02:48;;;;;;;33.27;12.67;;;-2.40;92.60;;;;;;5026996;28;20186;-68
2022/03/02 00:05:14;;;;;;;29.10;12.10;;;-2.50;92.50;;;;;;5025506;28;20190;-69
2022/03/02 00:07:41;;;;;;;22.53;9.40;;;-2.50;92.60;;;;;;5026663;28;20472;-68
2022/03/02 00:10:07;;;;;;;32.80;11.33;;;-2.50;92.70;;;;;;5034676;28;20424;-69
2022/03/02 00:12:33;;;;;;;20.33;8.27;;;-2.40;92.60;;;;;;5027945;28;20445;-69
2022/03/02 00:14:59;;;;;;;19.73;8.40;;;-2.40;92.90;;;;;;5036490;28;20539;-69
2022/03/02 00:17:25;;;;;;;17.33;6.90;;;-2.40;92.90;;;;;;5036929;28;20519;-69
2022/03/02 00:19:51;;;;;;;16.47;6.87;;;-2.30;93.00;;;;;;5027835;28;20568;-68
2022/03/02 00:22:18;;;;;;;19.53;5.67;;;-2.30;92.80;;;;;;5026875;28;20193;-68
2022/03/02 00:24:50;;;;;;;21.03;5.40;;;-2.30;92.60;;;;;;5026033;28;20431;-69
2022/03/02 00:27:19;;;;;;;10.87;5.43;;;-2.30;92.80;;;;;;5025226;28;20635;-67
2022/03/02 00:29:45;;;;;;;11.67;6.03;;;-2.40;93.30;;;;;;5025722;28;20429;-68
2022/03/02 00:32:11;;;;;;;17.10;6.93;;;-2.30;93.60;;;;;;5026556;28;20463;-68
2022/03/02 00:34:37;;;;;;;18.90;7.47;;;-2.30;93.30;;;;;;5026501;28;20604;-69
2022/03/02 00:37:02;;;;;;;12.30;6.10;;;-2.20;93.40;;;;;;5027530;28;21076;-69
2022/03/02 00:39:28;;;;;;;14.63;6.43;;;-2.20;93.50;;;;;;5025782;28;20609;-68
2022/03/02 00:41:54;;;;;;;15.63;6.90;;;-2.10;93.50;;;;;;5036374;28;20196;-68
2022/03/02 00:44:19;;;;;;;14.73;6.07;;;-2.00;93.50;;;;;;5030632;28;20739;-68
2022/03/02 00:46:46;;;;;;;22.37;8.97;;;-2.00;93.10;;;;;;5027102;28;20260;-68
2022/03/02 00:49:12;;;;;;;19.77;8.70;;;-1.90;92.90;;;;;;5025663;28;20186;-68
2022/03/02 00:51:38;;;;;;;18.37;7.63;;;-1.90;92.90;;;;;;5026438;28;20425;-69
2022/03/02 00:54:04;;;;;;;22.70;8.13;;;-1.90;92.60;;;;;;5026056;28;20522;-69
2022/03/02 00:56:29;;;;;;;20.77;7.93;;;-1.90;92.40;;;;;;5026339;28;20433;-69
2022/03/02 00:58:55;;;;;;;16.17;8.00;;;-1.90;92.70;;;;;;5025851;28;20190;-69
2022/03/02 01:01:21;;;;;;;19.20;7.97;;;-1.90;92.90;;;;;;5023273;28;20357;-69
2022/03/02 01:03:46;;;;;;;13.40;6.47;;;-1.90;92.80;;;;;;5034949;28;20194;-69
2022/03/02 01:06:12;;;;;;;13.23;6.57;;;-1.90;93.00;;;;;;5030134;28;20225;-69
2022/03/02 01:08:38;;;;;;;28.33;10.23;;;-1.90;92.70;;;;;;5026159;28;20460;-69
2022/03/02 01:11:03;;;;;;;40.27;12.27;;;-2.00;92.50;;;;;;5032279;28;20558;-68
2022/03/02 01:13:29;;;;;;;57.70;18.30;;;-2.00;92.50;;;;;;5031113;28;20257;-69
2022/03/02 01:15:55;;;;;;;47.40;18.87;;;-2.10;92.90;;;;;;5034482;28;20281;-68
2022/03/02 01:18:20;;;;;;;13.20;6.50;;;-2.10;93.10;;;;;;5030158;28;20628;-68
2022/03/02 01:20:46;;;;;;;11.73;4.57;;;-2.20;93.10;;;;;;5027467;28;20320;-69
2022/03/02 01:23:12;;;;;;;11.87;5.80;;;-2.20;93.20;;;;;;5028810;28;20244;-68
2022/03/02 01:25:38;;;;;;;10.77;5.87;;;-2.20;93.20;;;;;;5031095;28;20195;-68
2022/03/02 01:28:03;;;;;;;14.80;5.73;;;-2.20;93.10;;;;;;5027636;28;20671;-69
2022/03/02 01:30:30;;;;;;;11.47;5.60;;;-2.20;93.20;;;;;;5024977;28;20492;-69
2022/03/02 01:32:55;;;;;;;15.63;6.50;;;-2.20;93.40;;;;;;5031371;28;20193;-69
2022/03/02 01:35:21;;;;;;;24.20;7.17;;;-2.20;93.20;;;;;;5033250;28;20425;-69
2022/03/02 01:37:47;;;;;;;16.27;7.30;;;-2.20;93.00;;;;;;5028280;28;20319;-68
2022/03/02 01:40:14;;;;;;;17.97;7.10;;;-2.20;92.90;;;;;;5028302;28;20560;-68
2022/03/02 01:42:43;;;;;;;16.87;6.60;;;-2.20;92.70;;;;;;5031478;28;20209;-68
2022/03/02 01:45:12;;;;;;;16.43;7.27;;;-2.20;92.80;;;;;;5029417;28;20428;-68
2022/03/02 01:47:38;;;;;;;15.17;6.60;;;-2.20;92.80;;;;;;5029196;28;20525;-68
2022/03/02 01:50:11;;;;;;;12.37;5.30;;;-2.20;93.00;;;;;;5028891;28;21281;-68
2022/03/02 01:52:37;;;;;;;14.63;6.23;;;-2.30;93.20;;;;;;5030395;28;20420;-68
2022/03/02 01:55:05;;;;;;;12.63;5.90;;;-2.40;93.10;;;;;;5034175;28;20432;-68
2022/03/02 01:57:30;;;;;;;13.03;5.37;;;-2.40;93.50;;;;;;5029123;28;20793;-69
2022/03/02 01:59:56;;;;;;;15.60;6.60;;;-2.40;93.50;;;;;;5028596;28;20429;-69
2022/03/02 02:02:22;;;;;;;13.60;5.10;;;-2.40;93.50;;;;;;5034455;28;20260;-69
2022/03/02 02:04:48;;;;;;;10.73;5.30;;;-2.50;93.60;;;;;;5028141;28;20906;-69
2022/03/02 02:07:13;;;;;;;14.63;6.10;;;-2.50;93.80;;;;;;5029034;28;20558;-69
2022/03/02 02:09:39;;;;;;;11.50;4.57;;;-2.50;94.00;;;;;;5028374;28;20907;-69
2022/03/02 02:12:05;;;;;;;9.57;4.77;;;-2.50;94.10;;;;;;5028887;28;20373;-69
2022/03/02 02:14:30;;;;;;;15.33;6.17;;;-2.50;94.30;;;;;;5030268;28;20392;-69
2022/03/02 02:16:56;;;;;;;21.03;6.10;;;-2.50;94.30;;;;;;5028865;28;20237;-69
2022/03/02 02:19:22;;;;;;;12.50;6.10;;;-2.50;94.10;;;;;;5028565;28;20190;-69
2022/03/02 02:21:48;;;;;;;14.23;6.50;;;-2.50;94.30;;;;;;5036220;28;20190;-69
2022/03/02 02:24:14;;;;;;;19.53;6.63;;;-2.60;94.20;;;;;;5033844;28;20267;-67
2022/03/02 02:26:40;;;;;;;13.50;5.90;;;-2.60;94.50;;;;;;5030260;28;20881;-68
2022/03/02 02:29:06;;;;;;;11.23;5.57;;;-2.70;94.60;;;;;;5028638;28;20429;-67
2022/03/02 02:31:32;;;;;;;19.27;6.37;;;-2.80;94.70;;;;;;5028349;28;20700;-67
2022/03/02 02:33:57;;;;;;;8.47;4.57;;;-2.80;94.90;;;;;;5028667;28;20186;-67
2022/03/02 02:36:24;;;;;;;20.50;7.03;;;-2.80;95.10;;;;;;5033308;28;20281;-67
2022/03/02 02:38:50;;;;;;;10.93;5.30;;;-2.70;94.90;;;;;;5028117;28;20236;-68
2022/03/02 02:41:16;;;;;;;12.97;6.37;;;-2.80;94.60;;;;;;5031063;28;20461;-68
2022/03/02 02:43:42;;;;;;;15.10;6.73;;;-2.80;95.20;;;;;;5031376;28;20229;-68
2022/03/02 02:46:10;;;;;;;20.63;6.73;;;-2.80;94.80;;;;;;5027862;28;20513;-67
2022/03/02 02:48:37;;;;;;;13.73;5.60;;;-2.90;95.00;;;;;;5027980;28;20486;-68
2022/03/02 02:51:04;;;;;;;13.40;5.90;;;-2.90;94.90;;;;;;5031802;28;20832;-67
2022/03/02 02:53:29;;;;;;;14.13;6.60;;;-2.90;94.90;;;;;;5027665;28;20429;-67
2022/03/02 02:55:55;;;;;;;14.93;6.90;;;-2.90;94.90;;;;;;5032235;28;20770;-67
2022/03/02 02:58:20;;;;;;;15.80;5.87;;;-2.90;94.90;;;;;;5032055;28;20201;-67
2022/03/02 03:00:49;;;;;;;8.93;4.30;;;-2.90;94.90;;;;;;5027685;28;20293;-67
2022/03/02 03:03:16;;;;;;;14.23;5.93;;;-3.00;95.20;;;;;;5029884;28;20260;-67
2022/03/02 03:05:41;;;;;;;16.67;6.37;;;-3.00;95.50;;;;;;5032481;28;20436;-67
2022/03/02 03:08:09;;;;;;;9.60;4.50;;;-2.80;95.20;;;;;;5027555;28;20473;-68
2022/03/02 03:10:36;;;;;;;16.10;6.50;;;-2.90;95.30;;;;;;5027182;28;20248;-68
2022/03/02 03:13:02;;;;;;;21.33;8.43;;;-3.00;95.20;;;;;;5036632;28;20428;-67
2022/03/02 03:15:28;;;;;;;10.33;5.67;;;-3.00;95.30;;;;;;5029307;28;20420;-67
2022/03/02 03:17:54;;;;;;;21.40;7.73;;;-3.00;95.50;;;;;;5027252;28;20867;-68
2022/03/02 03:20:24;;;;;;;14.43;6.30;;;-3.00;95.30;;;;;;5026755;28;20512;-68
2022/03/02 03:22:52;;;;;;;12.70;5.40;;;-3.10;95.20;;;;;;5026017;28;20428;-67
2022/03/02 03:25:19;;;;;;;12.37;6.07;;;-3.20;95.20;;;;;;5027096;28;20429;-68
2022/03/02 03:27:45;;;;;;;12.53;5.87;;;-3.20;95.50;;;;;;5030011;28;20824;-68
2022/03/02 03:30:13;;;;;;;12.77;5.40;;;-3.20;95.60;;;;;;5026430;28;21080;-68
2022/03/02 03:32:39;;;;;;;9.00;5.20;;;-3.20;95.50;;;;;;5026779;28;20528;-68
2022/03/02 03:35:07;;;;;;;16.90;5.77;;;-3.20;95.70;;;;;;5033256;28;20883;-68
2022/03/02 03:37:33;;;;;;;15.50;6.73;;;-3.20;95.70;;;;;;5027827;28;20428;-67
2022/03/02 03:39:58;;;;;;;21.40;9.00;;;-3.20;95.60;;;;;;5026306;28;20937;-67
2022/03/02 03:42:24;;;;;;;17.60;6.57;;;-3.20;95.80;;;;;;5026820;28;20209;-68
2022/03/02 03:44:51;;;;;;;13.90;6.60;;;-3.20;95.90;;;;;;5028365;28;20186;-68
2022/03/02 03:47:17;;;;;;;17.43;6.00;;;-3.20;95.60;;;;;;5029930;28;20475;-68
2022/03/02 03:49:43;;;;;;;10.90;5.40;;;-3.30;95.30;;;;;;5026163;28;20448;-67
2022/03/02 03:52:09;;;;;;;15.23;6.73;;;-3.30;95.30;;;;;;5025569;28;20464;-67
2022/03/02 03:54:35;;;;;;;9.07;4.40;;;-3.30;95.50;;;;;;5026666;28;20186;-67
2022/03/02 03:57:04;;;;;;;11.23;5.50;;;-3.30;95.30;;;;;;5026730;28;20421;-67
2022/03/02 03:59:30;;;;;;;14.43;6.60;;;-3.30;95.20;;;;;;5026114;28;20907;-66
2022/03/02 04:01:56;;;;;;;11.40;4.93;;;-3.30;95.10;;;;;;5028659;28;20429;-67
2022/03/02 04:04:22;;;;;;;21.93;5.87;;;-3.40;95.20;;;;;;5033051;28;20210;-67
2022/03/02 04:06:47;;;;;;;11.23;5.57;;;-3.40;95.30;;;;;;5026153;28;20608;-67
2022/03/02 04:09:13;;;;;;;2.07;1.03;;;-3.50;95.30;;;;;;5025211;28;20190;-67
2022/03/02 04:11:39;;;;;;;15.20;6.60;;;-3.50;95.40;;;;;;5026332;28;20206;-67
2022/03/02 04:14:04;;;;;;;19.03;6.13;;;-3.50;95.50;;;;;;5026149;28;20197;-67
2022/03/02 04:16:30;;;;;;;12.53;5.27;;;-3.50;95.30;;;;;;5028793;28;20194;-67
2022/03/02 04:18:56;;;;;;;12.90;7.07;;;-3.50;95.60;;;;;;5026143;28;20216;-67
2022/03/02 04:21:22;;;;;;;22.83;7.53;;;-3.50;95.60;;;;;;5026024;28;20252;-67
2022/03/02 04:23:48;;;;;;;2.33;0.60;;;-3.60;95.50;;;;;;5029210;28;20261;-67
2022/03/02 04:26:14;;;;;;;15.80;5.90;;;-3.60;95.70;;;;;;5028238;28;20214;-67
2022/03/02 04:28:40;;;;;;;11.10;6.80;;;-3.50;95.70;;;;;;5026036;28;20190;-67
2022/03/02 04:31:06;;;;;;;10.50;5.93;;;-3.50;95.70;;;;;;5032537;28;20280;-67
2022/03/02 04:33:31;;;;;;;16.63;5.93;;;-3.50;95.40;;;;;;5031704;28;20802;-67
2022/03/02 04:35:57;;;;;;;20.33;6.43;;;-3.60;95.40;;;;;;5030040;28;20421;-67
2022/03/02 04:38:23;;;;;;;1.77;0.83;;;-3.50;95.50;;;;;;5026035;28;20183;-67
2022/03/02 04:40:49;;;;;;;12.93;6.53;;;-3.60;95.60;;;;;;5025846;28;20265;-68
2022/03/02 04:43:14;;;;;;;1.20;0.50;;;-3.60;95.70;;;;;;5032152;28;20432;-67
2022/03/02 04:45:40;;;;;;;11.03;5.60;;;-3.60;95.50;;;;;;5025253;28;20561;-67
2022/03/02 04:48:08;;;;;;;1.30;0.67;;;-3.60;95.60;;;;;;5026230;28;20217;-67
2022/03/02 04:50:34;;;;;;;6.97;2.97;;;-3.70;95.30;;;;;;5033553;28;20639;-67
2022/03/02 04:53:00;;;;;;;1.43;0.63;;;-3.70;95.50;;;;;;5031123;28;20459;-68
2022/03/02 04:55:25;;;;;;;9.63;5.43;;;-3.70;95.70;;;;;;5029419;28;20466;-68
2022/03/02 04:57:54;;;;;;;12.67;6.77;;;-3.70;95.60;;;;;;5026900;28;20647;-68
2022/03/02 05:00:25;;;;;;;1.67;0.87;;;-3.80;95.80;;;;;;5027114;28;20193;-67
2022/03/02 05:02:52;;;;;;;12.80;5.13;;;-3.80;95.90;;;;;;5027138;28;20913;-67
2022/03/02 05:05:21;;;;;;;2.53;1.47;;;-3.80;95.80;;;;;;5026481;28;20439;-67
2022/03/02 05:07:47;;;;;;;11.70;5.97;;;-3.90;95.80;;;;;;5026966;28;20905;-67
2022/03/02 05:10:14;;;;;;;4.60;2.83;;;-4.00;96.00;;;;;;5025290;28;20413;-67
2022/03/02 05:12:40;;;;;;;14.83;6.20;;;-4.10;96.00;;;;;;5025578;28;20425;-67
2022/03/02 05:15:07;;;;;;;2.10;0.80;;;-4.10;96.50;;;;;;5028090;28;20426;-67
2022/03/02 05:17:34;;;;;;;16.63;5.60;;;-4.10;96.50;;;;;;5025678;28;20545;-67
2022/03/02 05:20:00;;;;;;;14.80;6.30;;;-4.10;96.70;;;;;;5024895;28;20524;-67
2022/03/02 05:22:26;;;;;;;1.20;0.60;;;-4.10;96.60;;;;;;5029665;28;20861;-67
2022/03/02 05:24:51;;;;;;;11.43;5.60;;;-4.10;96.60;;;;;;5038032;28;20192;-67
2022/03/02 05:27:17;;;;;;;3.57;2.20;;;-4.00;96.70;;;;;;5029454;28;20501;-67
2022/03/02 05:29:43;;;;;;;16.57;6.40;;;-4.10;96.40;;;;;;5037676;28;20217;-67
2022/03/02 05:32:09;;;;;;;16.20;6.80;;;-4.10;96.40;;;;;;5024079;28;20201;-67
2022/03/02 05:34:35;;;;;;;1.30;0.67;;;-4.20;96.40;;;;;;5029541;28;20265;-67
2022/03/02 05:37:00;;;;;;;17.80;6.93;;;-4.20;96.60;;;;;;5040202;28;20471;-67
2022/03/02 05:39:26;;;;;;;14.53;6.63;;;-4.20;96.90;;;;;;5029248;28;20680;-67
2022/03/02 05:41:52;;;;;;;1.10;0.70;;;-4.10;97.00;;;;;;5039714;28;20562;-67
2022/03/02 05:44:18;;;;;;;18.47;6.53;;;-4.00;97.10;;;;;;5030259;28;20265;-66
2022/03/02 05:46:44;;;;;;;14.00;6.50;;;-4.00;96.80;;;;;;5028558;28;20214;-66
2022/03/02 05:49:10;;;;;;;1.70;1.33;;;-4.10;96.80;;;;;;5028726;28;20204;-67
2022/03/02 05:51:36;;;;;;;18.33;6.33;;;-3.90;97.40;;;;;;5029248;28;20425;-67
2022/03/02 05:54:04;;;;;;;13.40;6.60;;;-3.90;97.20;;;;;;5027340;28;20480;-68
2022/03/02 05:56:31;;;;;;;2.17;1.63;;;-3.70;97.20;;;;;;5027111;28;20860;-67
2022/03/02 05:58:58;;;;;;;14.70;6.20;;;-3.70;96.90;;;;;;5030096;28;20822;-68
2022/03/02 06:01:23;;;;;;;19.00;6.80;;;-3.60;97.10;;;;;;5030144;28;20433;-67
2022/03/02 06:03:49;;;;;;;9.80;4.73;;;-3.50;96.90;;;;;;5027698;28;20507;-68
2022/03/02 06:06:16;;;;;;;16.07;7.97;;;-3.50;96.70;;;;;;5028313;28;20456;-67
2022/03/02 06:08:41;;;;;;;16.97;6.37;;;-3.50;97.20;;;;;;5032875;28;20293;-68
2022/03/02 06:11:08;;;;;;;25.77;5.70;;;-3.50;97.30;;;;;;5028545;28;20929;-68
2022/03/02 06:13:34;;;;;;;1.63;0.73;;;-3.40;97.60;;;;;;5032237;28;20188;-67
2022/03/02 06:16:01;;;;;;;16.40;6.63;;;-3.40;97.20;;;;;;5031086;28;20416;-67
2022/03/02 06:18:27;;;;;;;8.87;4.33;;;-3.30;96.80;;;;;;5028269;28;20511;-67
2022/03/02 06:20:59;;;;;;;18.40;6.90;;;-3.20;96.70;;;;;;5028096;28;20508;-68
2022/03/02 06:23:26;;;;;;;6.97;4.00;;;-3.20;96.70;;;;;;5027515;28;20585;-68
2022/03/02 06:25:52;;;;;;;2.33;1.03;;;-3.10;96.40;;;;;;5028258;28;20422;-68
2022/03/02 06:28:17;;;;;;;17.53;8.00;;;-3.10;96.50;;;;;;5022604;28;20465;-67
2022/03/02 06:30:43;;;;;;;2.93;2.00;;;-3.00;96.70;;;;;;5027760;28;20218;-67
2022/03/02 06:33:12;;;;;;;19.40;8.27;;;-3.00;96.70;;;;;;5028040;28;20191;-67
2022/03/02 06:35:38;;;;;;;22.40;9.20;;;-2.90;96.80;;;;;;5028829;28;20171;-67
2022/03/02 06:38:03;;;;;;;27.90;10.13;;;-2.90;96.70;;;;;;5027368;28;20417;-67
2022/03/02 06:40:29;;;;;;;26.73;9.87;;;-2.80;96.70;;;;;;5026809;28;20321;-68
2022/03/02 06:43:07;;;;;;;19.33;6.50;;;-2.70;96.60;;;;;;5028627;28;20187;-66
2022/03/02 06:45:48;;;;;;;35.60;11.00;;;-2.60;96.70;;;;;;5025131;28;20830;-66
2022/03/02 06:48:19;;;;;;;4.70;2.47;;;-2.60;96.40;;;;;;5024143;28;20487;-67
2022/03/02 06:50:48;;;;;;;19.23;9.37;;;-2.50;96.90;;;;;;5027159;28;20440;-67
2022/03/02 06:53:14;;;;;;;28.20;11.27;;;-2.40;97.00;;;;;;5026334;28;20449;-67
2022/03/02 06:55:42;;;;;;;10.83;6.27;;;-2.40;97.10;;;;;;5028196;28;20953;-67
2022/03/02 06:58:11;;;;;;;15.70;7.03;;;-2.30;97.20;;;;;;5033084;28;20868;-67
2022/03/02 07:00:38;;;;;;;33.83;4.20;;;-2.20;97.00;;;;;;5024159;28;20444;-66
2022/03/02 07:03:11;;;;;;;29.03;10.90;;;-2.00;96.90;;;;;;5029978;28;20429;-66
2022/03/02 07:05:37;;;;;;;1.60;0.77;;;-1.90;96.70;;;;;;5027077;28;20447;-66
2022/03/02 07:08:04;;;;;;;17.53;4.67;;;-1.80;96.90;;;;;;5027562;28;20904;-66
2022/03/02 07:10:35;;;;;;;37.83;13.53;;;-1.70;96.70;;;;;;5025479;28;20569;-66
2022/03/02 07:13:03;;;;;;;44.10;18.50;;;-1.60;96.40;;;;;;5026402;28;20428;-67
2022/03/02 07:15:31;;;;;;;24.87;8.47;;;-1.50;96.40;;;;;;5026060;28;20441;-67
2022/03/02 07:18:00;;;;;;;3.73;1.17;;;-1.50;96.10;;;;;;5029921;28;20422;-67
2022/03/02 07:20:27;;;;;;;27.83;12.37;;;-1.40;96.20;;;;;;5038875;28;20487;-66
2022/03/02 07:22:54;;;;;;;26.90;11.87;;;-1.30;96.40;;;;;;5026844;28;20436;-66
2022/03/02 07:25:32;;;;;;;28.83;13.00;;;-1.30;96.40;;;;;;5027318;28;20429;-66
2022/03/02 07:27:59;;;;;;;32.10;12.40;;;-1.10;96.40;;;;;;5036853;28;20471;-66
2022/03/02 07:30:26;;;;;;;12.43;5.90;;;-1.00;96.20;;;;;;5029131;28;20432;-67
2022/03/02 07:32:58;;;;;;;10.67;3.97;;;-0.90;95.90;;;;;;5026232;28;20421;-66
2022/03/02 07:35:25;;;;;;;19.90;9.23;;;-0.80;95.50;;;;;;5029798;28;20443;-67
2022/03/02 07:37:55;;;;;;;23.10;8.70;;;-0.80;95.50;;;;;;5028684;28;20512;-66
2022/03/02 07:40:21;;;;;;;1.30;0.60;;;-0.70;95.50;;;;;;5025976;28;20448;-66
2022/03/02 07:42:46;;;;;;;21.30;7.93;;;-0.80;95.50;;;;;;5025292;28;20457;-67
2022/03/02 07:45:13;;;;;;;17.97;7.83;;;-0.80;95.50;;;;;;5026435;28;20558;-66
2022/03/02 07:47:38;;;;;;;39.83;9.27;;;-0.70;95.50;;;;;;5025348;28;20396;-66
2022/03/02 07:50:04;;;;;;;22.90;10.20;;;-0.60;96.10;;;;;;5025850;28;20856;-67
2022/03/02 07:52:37;;;;;;;20.03;8.30;;;-0.40;96.30;;;;;;5026795;28;20678;-67
2022/03/02 07:55:09;;;;;;;83.10;26.07;;;-0.30;96.00;;;;;;5025934;28;20868;-67
2022/03/02 07:57:36;;;;;;;87.77;22.40;;;-0.10;95.20;;;;;;5026822;28;20467;-67
2022/03/02 08:00:04;;;;;;;42.50;13.00;;;0.10;94.90;;;;;;5027166;28;20964;-67
2022/03/02 08:02:31;;;;;;;29.10;11.33;;;0.30;94.70;;;;;;5023949;28;20789;-67
2022/03/02 08:04:57;;;;;;;22.37;11.30;;;0.50;94.30;;;;;;5027129;28;20441;-66
2022/03/02 08:07:23;;;;;;;25.03;9.60;;;0.80;94.20;;;;;;5027646;28;20508;-67
2022/03/02 08:09:51;;;;;;;19.07;9.17;;;0.80;94.60;;;;;;5041069;28;20464;-68
2022/03/02 08:12:21;;;;;;;22.97;9.70;;;0.80;94.60;;;;;;5031704;28;20424;-67
2022/03/02 08:14:50;;;;;;;22.93;9.57;;;1.00;94.50;;;;;;5031572;28;20980;-67
2022/03/02 08:17:18;;;;;;;26.13;10.73;;;1.10;93.80;;;;;;5028457;28;20429;-67
2022/03/02 08:19:46;;;;;;;30.13;10.27;;;1.30;93.40;;;;;;5027010;28;20425;-67
2022/03/02 08:22:19;;;;;;;29.40;11.83;;;1.60;93.10;;;;;;5025609;28;20502;-67
2022/03/02 08:24:53;;;;;;;27.70;11.63;;;1.90;92.40;;;;;;5027124;28;20461;-67
2022/03/02 08:27:19;;;;;;;29.30;10.53;;;2.20;91.90;;;;;;5027075;28;20518;-67
2022/03/02 08:29:53;;;;;;;25.53;11.33;;;2.40;91.30;;;;;;5030859;28;20425;-67
2022/03/02 08:32:21;;;;;;;15.10;7.50;;;2.60;90.60;;;;;;5027124;28;20205;-67
2022/03/02 08:34:48;;;;;;;16.80;7.10;;;2.90;90.00;;;;;;5021802;28;20510;-67
2022/03/02 08:37:17;;;;;;;10.47;5.80;;;3.10;86.10;;;;;;5027556;28;20926;-68
2022/03/02 08:39:43;;;;;;;12.17;5.00;;;3.10;87.00;;;;;;5026327;28;20495;-67
2022/03/02 08:42:09;;;;;;;14.87;6.10;;;3.20;85.60;;;;;;5029648;28;20475;-67
2022/03/02 08:44:35;;;;;;;31.40;5.97;;;3.30;85.10;;;;;;5027700;28;20532;-67
2022/03/02 08:47:01;;;;;;;12.87;6.20;;;3.20;85.00;;;;;;5028743;28;20561;-67
2022/03/02 08:49:27;;;;;;;12.13;6.07;;;3.10;83.80;;;;;;5027187;28;20524;-68
2022/03/02 08:51:55;;;;;;;9.97;4.90;;;3.20;83.60;;;;;;5027774;28;20512;-68
2022/03/02 08:54:23;;;;;;;13.20;6.43;;;3.20;84.10;;;;;;5026821;28;20240;-68
2022/03/02 08:56:50;;;;;;;10.93;5.57;;;3.20;83.80;;;;;;5026483;28;20438;-68
2022/03/02 08:59:18;;;;;;;15.53;5.07;;;3.20;84.00;;;;;;5025342;28;20520;-68
2022/03/02 09:01:49;;;;;;;22.97;5.60;;;3.30;84.70;;;;;;5029090;28;20519;-68
2022/03/02 09:04:16;;;;;;;11.43;5.60;;;3.40;85.20;;;;;;5030522;28;20913;-68
2022/03/02 09:06:43;;;;;;;13.83;4.73;;;3.50;85.30;;;;;;5026607;28;20555;-68
2022/03/02 09:09:08;;;;;;;14.50;6.30;;;3.70;85.10;;;;;;5029663;28;20421;-68
2022/03/02 09:11:34;;;;;;;12.90;4.90;;;3.80;84.50;;;;;;5027257;28;20794;-68
2022/03/02 09:14:01;;;;;;;8.60;4.70;;;3.80;84.30;;;;;;5025800;28;20659;-68
2022/03/02 09:16:29;;;;;;;14.63;5.37;;;3.90;82.90;;;;;;5026960;28;20607;-68
2022/03/02 09:18:54;;;;;;;10.77;5.00;;;4.00;82.30;;;;;;5028586;28;20857;-68
2022/03/02 09:21:22;;;;;;;19.03;6.53;;;4.10;81.70;;;;;;5025140;28;20532;-68
2022/03/02 09:23:48;;;;;;;10.80;4.70;;;4.20;80.90;;;;;;5025174;28;20186;-68
2022/03/02 09:26:17;;;;;;;11.70;5.17;;;4.40;81.20;;;;;;5021545;28;20437;-68
2022/03/02 09:28:46;;;;;;;9.73;4.87;;;4.20;80.10;;;;;;5026311;28;20790;-68
2022/03/02 09:31:14;;;;;;;13.07;6.57;;;4.30;79.70;;;;;;5032182;28;20486;-67
2022/03/02 09:33:41;;;;;;;17.83;7.17;;;4.40;81.60;;;;;;5026323;28;20446;-68
2022/03/02 09:36:08;;;;;;;16.03;6.83;;;4.40;83.70;;;;;;5025226;28;20474;-68
2022/03/02 09:38:35;;;;;;;13.77;6.10;;;4.40;84.40;;;;;;5024405;28;20431;-68
2022/03/02 09:41:12;;;;;;;12.90;6.13;;;4.40;84.50;;;;;;5025070;28;20582;-68
2022/03/02 09:43:42;;;;;;;15.10;6.27;;;4.40;83.50;;;;;;5022412;28;20875;-68
2022/03/02 09:46:10;;;;;;;13.77;5.80;;;4.40;83.90;;;;;;5027323;28;20432;-68
2022/03/02 09:48:49;;;;;;;14.13;7.27;;;4.30;83.80;;;;;;5027413;28;20440;-67
2022/03/02 09:51:22;;;;;;;15.23;6.70;;;4.40;83.80;;;;;;5024333;28;20866;-68
2022/03/02 09:53:53;;;;;;;18.40;7.50;;;4.40;83.80;;;;;;5025666;28;20427;-68
2022/03/02 09:56:22;;;;;;;18.23;7.07;;;4.50;83.60;;;;;;5027565;28;20575;-67
2022/03/02 09:58:51;;;;;;;13.60;6.90;;;4.60;83.40;;;;;;5026849;28;20871;-68
2022/03/02 10:01:21;;;;;;;22.20;7.83;;;4.60;83.00;;;;;;5029470;28;20443;-68
2022/03/02 10:03:50;;;;;;;12.23;7.00;;;4.60;84.00;;;;;;5025579;28;20729;-69
2022/03/02 10:06:17;;;;;;;14.17;6.20;;;4.70;83.00;;;;;;5026375;28;20429;-68
2022/03/02 10:08:54;;;;;;;14.83;6.50;;;4.80;82.70;;;;;;5033113;28;20821;-67
2022/03/02 10:11:23;;;;;;;17.73;7.40;;;4.90;81.40;;;;;;5040663;28;21030;-68
2022/03/02 10:13:50;;;;;;;15.23;7.80;;;5.00;81.50;;;;;;5030508;28;20421;-68
2022/03/02 10:16:25;;;;;;;13.00;6.13;;;5.20;80.80;;;;;;5031952;28;20848;-68
2022/03/02 10:18:59;;;;;;;17.50;6.30;;;5.40;79.80;;;;;;5032598;28;20436;-69
2022/03/02 10:21:30;;;;;;;15.23;6.43;;;5.50;78.90;;;;;;5033981;28;20779;-68
2022/03/02 10:24:03;;;;;;;26.43;6.40;;;5.60;78.30;;;;;;5029414;28;20532;-69
2022/03/02 10:26:31;;;;;;;17.97;8.30;;;5.60;78.10;;;;;;5029737;28;20782;-68
2022/03/02 10:29:12;;;;;;;13.07;5.23;;;5.60;76.80;;;;;;5033085;28;20435;-68
2022/03/02 10:31:38;;;;;;;13.00;5.93;;;5.30;78.60;;;;;;5037283;28;20456;-68
2022/03/02 10:34:27;;;;;;;11.40;5.63;;;5.40;77.30;;;;;;5031610;28;20460;-68
2022/03/02 10:37:11;;;;;;;15.70;6.47;;;5.50;76.90;;;;;;5030280;28;20643;-68
2022/03/02 10:40:16;;;;;;;9.20;5.80;;;5.60;76.00;;;;;;5034915;28;20448;-68
2022/03/02 10:42:57;;;;;;;13.60;7.00;;;5.50;78.10;;;;;;5024378;28;20520;-68
2022/03/02 10:45:26;;;;;;;16.37;6.50;;;5.60;78.10;;;;;;5030122;28;20439;-68
2022/03/02 10:48:09;;;;;;;14.90;4.63;;;5.80;78.10;;;;;;5029947;28;20502;-68
2022/03/02 10:50:37;;;;;;;12.33;5.90;;;5.80;77.20;;;;;;5023311;28;20466;-68
2022/03/02 10:53:05;;;;;;;13.83;6.03;;;5.70;77.20;;;;;;5027364;28;20409;-68
2022/03/02 10:55:33;;;;;;;13.63;6.10;;;5.60;77.20;;;;;;5026998;28;20778;-67
2022/03/02 10:58:02;;;;;;;14.07;5.50;;;6.10;75.60;;;;;;5027580;28;20417;-68
2022/03/02 11:00:28;;;;;;;13.70;5.70;;;6.20;74.70;;;;;;5031526;28;20479;-68
2022/03/02 11:02:57;;;;;;;16.53;5.67;;;6.30;74.40;;;;;;5027184;28;20417;-67
2022/03/02 11:05:25;;;;;;;11.37;5.20;;;6.40;73.60;;;;;;5032116;28;20308;-68
2022/03/02 11:07:51;;;;;;;15.23;6.37;;;6.20;73.40;;;;;;5037939;28;20586;-67
2022/03/02 11:10:20;;;;;;;11.70;5.13;;;6.40;73.50;;;;;;5029928;28;20418;-68
2022/03/02 11:12:48;;;;;;;13.07;5.70;;;6.40;73.00;;;;;;5029020;28;20719;-68
2022/03/02 11:15:17;;;;;;;10.30;5.97;;;6.40;72.30;;;;;;5030330;28;20440;-68
2022/03/02 11:17:56;;;;;;;14.73;6.30;;;6.30;73.10;;;;;;5024325;28;20425;-68
2022/03/02 11:20:24;;;;;;;15.37;5.63;;;6.20;73.20;;;;;;5028327;28;20909;-70
2022/03/02 11:22:52;;;;;;;10.57;4.73;;;6.20;72.50;;;;;;5029254;28;20440;-68
2022/03/02 11:25:18;;;;;;;15.20;5.80;;;6.40;71.80;;;;;;5028141;28;20425;-68
2022/03/02 11:27:45;;;;;;;11.60;5.93;;;6.50;71.20;;;;;;5029909;28;20460;-68
2022/03/02 11:30:17;;;;;;;15.63;5.40;;;6.50;71.40;;;;;;5038912;28;20257;-68
2022/03/02 11:32:45;;;;;;;10.27;5.77;;;6.80;71.50;;;;;;5028496;28;20435;-68
2022/03/02 11:35:14;;;;;;;18.33;7.30;;;6.90;70.30;;;;;;5031131;28;20961;-68
2022/03/02 11:37:41;;;;;;;18.90;4.83;;;7.10;70.00;;;;;;5023261;28;20820;-68
2022/03/02 11:40:10;;;;;;;8.83;4.37;;;7.10;68.50;;;;;;5027887;28;20444;-68
2022/03/02 11:42:38;;;;;;;10.40;5.00;;;7.10;69.00;;;;;;5030197;28;20441;-68
2022/03/02 11:45:06;;;;;;;13.03;6.20;;;7.10;68.40;;;;;;5028202;28;20497;-68
2022/03/02 11:47:37;;;;;;;12.73;5.37;;;7.20;68.00;;;;;;5028976;28;20460;-68
2022/03/02 11:50:11;;;;;;;10.63;5.20;;;7.20;68.30;;;;;;5026028;28;20817;-70
2022/03/02 11:52:46;;;;;;;14.90;5.77;;;7.40;67.80;;;;;;5025361;28;20540;-68
2022/03/02 11:55:18;;;;;;;11.30;4.50;;;7.40;66.10;;;;;;5028666;28;20436;-68
2022/03/02 11:57:50;;;;;;;14.63;5.43;;;7.40;65.90;;;;;;5027465;28;20531;-69
2022/03/02 12:00:17;;;;;;;18.13;6.67;;;7.40;67.10;;;;;;5031711;28;20430;-68
2022/03/02 12:02:47;;;;;;;9.90;4.70;;;7.30;66.50;;;;;;5028900;28;20440;-69
2022/03/02 12:05:16;;;;;;;16.93;6.00;;;7.30;65.40;;;;;;5037658;28;20432;-69
2022/03/02 12:07:43;;;;;;;18.63;4.27;;;7.50;65.20;;;;;;5041021;28;20506;-70
2022/03/02 12:10:18;;;;;;;12.63;5.77;;;7.50;63.80;;;;;;5031632;28;20792;-70
2022/03/02 12:12:44;;;;;;;14.77;5.73;;;7.60;63.90;;;;;;5033155;28;20437;-69
2022/03/02 12:15:10;;;;;;;14.20;4.90;;;7.60;62.10;;;;;;5034856;28;20905;-68
2022/03/02 12:17:36;;;;;;;9.93;4.53;;;7.60;60.90;;;;;;5031433;28;20417;-68
2022/03/02 12:20:22;;;;;;;10.10;4.67;;;7.50;61.00;;;;;;5029657;28;20456;-68
2022/03/02 12:22:57;;;;;;;12.90;5.27;;;7.30;62.60;;;;;;5028409;28;20190;-68
2022/03/02 12:25:25;;;;;;;9.80;4.27;;;7.40;63.10;;;;;;5028566;28;20452;-68
2022/03/02 12:27:59;;;;;;;11.60;5.03;;;7.50;62.70;;;;;;5025315;28;20834;-69
2022/03/02 12:30:27;;;;;;;10.60;5.03;;;7.60;62.10;;;;;;5020472;28;20421;-68
2022/03/02 12:32:54;;;;;;;15.63;4.77;;;7.60;61.50;;;;;;5028131;28;20417;-69
2022/03/02 12:35:24;;;;;;;10.37;4.87;;;7.80;61.20;;;;;;5032888;28;20417;-68
2022/03/02 12:37:57;;;;;;;10.50;5.50;;;7.80;60.20;;;;;;5026963;28;21202;-69
2022/03/02 12:40:29;;;;;;;9.90;5.50;;;7.60;61.20;;;;;;5030566;28;20448;-69
2022/03/02 12:42:55;;;;;;;12.50;5.40;;;7.70;62.00;;;;;;5029869;28;20426;-70